createdAt,value
2023-02-04T00:01:07.477Z,3.90
2023-02-04T00:03:31.049Z,4.00
2023-02-04T00:05:54.766Z,4.00
2023-02-04T00:08:18.422Z,4.00
2023-02-04T00:10:43.585Z,3.90
2023-02-04T00:13:07.164Z,3.90
2023-02-04T00:15:31.297Z,3.90
2023-02-04T00:17:54.891Z,4.00
2023-02-04T00:20:19.701Z,3.90
2023-02-04T00:22:43.478Z,3.90
2023-02-04T00:25:08.742Z,3.90
2023-02-04T00:27:33.747Z,3.90
2023-02-04T00:29:57.724Z,3.80
2023-02-04T00:32:21.371Z,3.80
2023-02-04T00:34:45.113Z,3.80
2023-02-04T00:37:09.318Z,3.80
2023-02-04T00:39:34.274Z,3.70
2023-02-04T00:41:57.890Z,3.60
2023-02-04T00:44:22.960Z,3.50
2023-02-04T00:46:48.798Z,3.40
2023-02-04T00:49:12.857Z,3.30
2023-02-04T00:51:36.429Z,3.30
2023-02-04T00:54:00.111Z,3.30
2023-02-04T00:56:23.700Z,3.20
2023-02-04T00:58:47.400Z,3.20
2023-02-04T01:01:12.439Z,3.20
2023-02-04T01:03:36.117Z,3.10
2023-02-04T01:05:59.729Z,3.10
2023-02-04T01:08:23.498Z,3.10
2023-02-04T01:10:47.155Z,3.10
2023-02-04T01:13:10.821Z,3.10
2023-02-04T01:15:34.410Z,3.10
2023-02-04T01:17:59.507Z,3.10
2023-02-04T01:20:23.088Z,3.10
2023-02-04T01:22:46.769Z,3.10
2023-02-04T01:25:10.414Z,3.00
2023-02-04T01:27:37.732Z,3.00
2023-02-04T01:30:01.345Z,3.00
2023-02-04T01:32:25.011Z,3.00
2023-02-04T01:34:50.639Z,3.00
2023-02-04T01:37:14.440Z,3.00
2023-02-04T01:39:38.498Z,3.00
2023-02-04T01:42:02.254Z,3.00
2023-02-04T01:44:25.887Z,2.90
2023-02-04T01:46:49.663Z,2.90
2023-02-04T01:49:13.999Z,2.90
2023-02-04T01:51:39.570Z,2.80
2023-02-04T01:54:03.308Z,2.80
2023-02-04T01:56:32.010Z,2.80
2023-02-04T01:58:57.745Z,2.70
2023-02-04T02:01:38.522Z,2.70
2023-02-04T02:04:02.298Z,2.70
2023-02-04T02:06:26.032Z,2.70
2023-02-04T02:08:51.731Z,2.70
2023-02-04T02:11:15.300Z,2.70
2023-02-04T02:13:39.006Z,2.70
2023-02-04T02:16:02.667Z,2.60
2023-02-04T02:18:26.349Z,2.60
2023-02-04T02:20:50.009Z,2.60
2023-02-04T02:23:22.614Z,2.60
2023-02-04T02:25:48.105Z,2.60
2023-02-04T02:28:15.165Z,2.50
2023-02-04T02:30:39.213Z,2.50
2023-02-04T02:33:02.981Z,2.40
2023-02-04T02:35:26.737Z,2.40
2023-02-04T02:37:50.343Z,2.40
2023-02-04T02:40:15.600Z,2.40
2023-02-04T02:42:40.856Z,2.30
2023-02-04T02:45:09.761Z,2.30
2023-02-04T02:47:34.709Z,2.30
2023-02-04T02:49:58.394Z,2.30
2023-02-04T02:52:22.947Z,2.20
2023-02-04T02:54:47.312Z,2.20
2023-02-04T02:57:15.852Z,2.20
2023-02-04T02:59:40.896Z,2.20
2023-02-04T03:02:06.372Z,2.10
2023-02-04T03:04:33.563Z,2.10
2023-02-04T03:06:57.514Z,2.10
2023-02-04T03:09:21.763Z,2.10
2023-02-04T03:11:45.462Z,2.10
2023-02-04T03:14:10.094Z,2.10
2023-02-04T03:16:36.918Z,2.00
2023-02-04T03:19:01.305Z,2.00
2023-02-04T03:21:24.948Z,2.00
2023-02-04T03:23:48.806Z,1.90
2023-02-04T03:26:12.495Z,1.90
2023-02-04T03:28:41.195Z,2.00
2023-02-04T03:31:06.646Z,1.90
2023-02-04T03:33:31.869Z,1.90
2023-02-04T03:35:55.507Z,1.80
2023-02-04T03:38:20.024Z,1.90
2023-02-04T03:40:43.799Z,1.90
2023-02-04T03:43:07.470Z,1.80
2023-02-04T03:45:40.645Z,1.80
2023-02-04T03:48:08.629Z,1.80
2023-02-04T03:50:33.917Z,1.70
2023-02-04T03:52:57.617Z,1.70
2023-02-04T03:55:21.416Z,1.70
2023-02-04T03:57:45.093Z,1.70
2023-02-04T04:00:10.764Z,1.70
2023-02-04T04:02:37.087Z,1.70
2023-02-04T04:05:00.658Z,1.60
2023-02-04T04:07:25.718Z,1.70
2023-02-04T04:09:49.331Z,1.70
2023-02-04T04:12:12.957Z,1.70
2023-02-04T04:14:37.029Z,1.70
2023-02-04T04:17:00.671Z,1.70
2023-02-04T04:19:24.940Z,1.70
2023-02-04T04:21:48.635Z,1.70
2023-02-04T04:24:13.645Z,1.60
2023-02-04T04:26:37.253Z,1.60
2023-02-04T04:29:00.852Z,1.60
2023-02-04T04:31:24.704Z,1.60
2023-02-04T04:33:48.359Z,1.60
2023-02-04T04:36:12.059Z,1.60
2023-02-04T04:38:35.739Z,1.50
2023-02-04T04:41:00.810Z,1.50
2023-02-04T04:43:24.444Z,1.50
2023-02-04T04:45:48.107Z,1.50
2023-02-04T04:48:11.701Z,1.40
2023-02-04T04:50:35.319Z,1.40
2023-02-04T04:52:58.961Z,1.40
2023-02-04T04:55:22.636Z,1.40
2023-02-04T04:57:48.052Z,1.30
2023-02-04T05:00:17.815Z,1.30
2023-02-04T05:02:41.959Z,1.30
2023-02-04T05:05:05.847Z,1.30
2023-02-04T05:07:29.540Z,1.30
2023-02-04T05:09:53.160Z,1.20
2023-02-04T05:12:16.797Z,1.20
2023-02-04T05:14:41.889Z,1.20
2023-02-04T05:17:05.516Z,1.20
2023-02-04T05:19:29.151Z,1.10
2023-02-04T05:21:52.803Z,1.10
2023-02-04T05:24:16.403Z,1.10
2023-02-04T05:26:40.056Z,1.00
2023-02-04T05:29:03.742Z,1.00
2023-02-04T05:31:28.892Z,1.00
2023-02-04T05:33:52.461Z,0.90
2023-02-04T05:36:16.310Z,0.90
2023-02-04T05:38:39.934Z,0.90
2023-02-04T05:41:03.633Z,0.90
2023-02-04T05:43:27.276Z,0.90
2023-02-04T05:45:50.928Z,0.80
2023-02-04T05:48:15.932Z,0.80
2023-02-04T05:50:39.634Z,0.80
2023-02-04T05:53:06.148Z,0.80
2023-02-04T05:55:29.804Z,0.80
2023-02-04T05:57:53.436Z,0.80
2023-02-04T06:00:17.204Z,0.80
2023-02-04T06:02:40.857Z,0.80
2023-02-04T06:05:07.017Z,0.80
2023-02-04T06:07:30.592Z,0.80
2023-02-04T06:09:54.300Z,0.80
2023-02-04T06:12:17.939Z,0.80
2023-02-04T06:14:42.893Z,0.80
2023-02-04T06:17:06.520Z,0.80
2023-02-04T06:19:30.226Z,0.80
2023-02-04T06:21:55.256Z,0.80
2023-02-04T06:24:19.310Z,0.80
2023-02-04T06:26:42.921Z,0.70
2023-02-04T06:29:06.631Z,0.70
2023-02-04T06:31:30.330Z,0.70
2023-02-04T06:33:54.181Z,0.70
2023-02-04T06:36:17.803Z,0.70
2023-02-04T06:38:43.438Z,0.70
2023-02-04T06:41:07.351Z,0.70
2023-02-04T06:43:31.034Z,0.70
2023-02-04T06:45:54.856Z,0.70
2023-02-04T06:48:18.698Z,0.70
2023-02-04T06:50:42.336Z,0.70
2023-02-04T06:53:05.985Z,0.70
2023-02-04T06:55:31.015Z,0.70
2023-02-04T06:57:54.680Z,0.70
2023-02-04T07:00:18.644Z,0.60
2023-02-04T07:02:42.603Z,0.70
2023-02-04T07:05:07.222Z,0.70
2023-02-04T07:07:31.143Z,0.60
2023-02-04T07:09:55.000Z,0.60
2023-02-04T07:12:20.124Z,0.70
2023-02-04T07:14:43.695Z,0.60
2023-02-04T07:17:07.341Z,0.60
2023-02-04T07:19:31.081Z,0.70
2023-02-04T07:21:56.909Z,0.60
2023-02-04T07:24:20.743Z,0.70
2023-02-04T07:26:44.402Z,0.70
2023-02-04T07:29:14.840Z,0.70
2023-02-04T07:31:45.559Z,0.70
2023-02-04T07:34:09.343Z,0.70
2023-02-04T07:36:33.144Z,0.80
2023-02-04T07:38:56.757Z,0.80
2023-02-04T07:41:21.137Z,0.80
2023-02-04T07:43:44.928Z,0.80
2023-02-04T07:46:10.203Z,0.80
2023-02-04T07:48:33.866Z,0.80
2023-02-04T07:50:57.491Z,0.80
2023-02-04T07:53:21.142Z,0.90
2023-02-04T07:55:44.879Z,0.90
2023-02-04T07:58:08.509Z,0.90
2023-02-04T08:00:32.710Z,1.00
2023-02-04T08:02:57.982Z,1.10
2023-02-04T08:05:21.649Z,1.10
2023-02-04T08:07:45.562Z,1.10
2023-02-04T08:10:11.099Z,1.20
2023-02-04T08:12:34.786Z,1.20
2023-02-04T08:14:58.508Z,1.20
2023-02-04T08:17:22.150Z,1.30
2023-02-04T08:19:47.197Z,1.40
2023-02-04T08:22:11.695Z,1.50
2023-02-04T08:24:35.370Z,1.50
2023-02-04T08:26:59.432Z,1.60
2023-02-04T08:29:23.144Z,1.60
2023-02-04T08:31:47.799Z,1.70
2023-02-04T08:34:11.528Z,1.80
2023-02-04T08:36:36.578Z,1.80
2023-02-04T08:39:00.218Z,1.80
2023-02-04T08:41:23.836Z,1.90
2023-02-04T08:43:47.529Z,1.90
2023-02-04T08:46:11.343Z,2.00
2023-02-04T08:48:34.992Z,2.00
2023-02-04T08:50:58.677Z,2.10
2023-02-04T08:53:23.843Z,2.20
2023-02-04T08:55:47.544Z,2.20
2023-02-04T08:58:11.242Z,2.30
2023-02-04T09:00:35.263Z,2.50
2023-02-04T09:02:59.088Z,2.60
2023-02-04T09:05:22.819Z,2.70
2023-02-04T09:07:46.501Z,3.00
2023-02-04T09:10:11.906Z,3.20
2023-02-04T09:12:36.136Z,3.40
2023-02-04T09:14:59.741Z,3.50
2023-02-04T09:17:23.353Z,3.70
2023-02-04T09:19:46.985Z,3.90
2023-02-04T09:22:10.683Z,3.90
2023-02-04T09:24:34.257Z,3.90
2023-02-04T09:26:59.291Z,4.00
2023-02-04T09:29:22.892Z,4.20
2023-02-04T09:31:46.674Z,4.40
2023-02-04T09:34:10.292Z,4.70
2023-02-04T09:36:38.557Z,5.10
2023-02-04T09:39:02.200Z,5.50
2023-02-04T09:41:25.939Z,5.90
2023-02-04T09:43:51.318Z,6.10
2023-02-04T09:46:22.687Z,6.30
2023-02-04T09:48:46.376Z,6.50
2023-02-04T09:51:12.120Z,6.50
2023-02-04T09:53:37.981Z,6.60
2023-02-04T09:56:01.623Z,7.10
2023-02-04T09:58:34.727Z,7.00
2023-02-04T10:01:07.866Z,7.10
2023-02-04T10:03:31.608Z,7.50
2023-02-04T10:05:55.258Z,7.70
2023-02-04T10:08:21.679Z,7.90
2023-02-04T10:10:47.106Z,8.30
2023-02-04T10:13:19.750Z,7.90
2023-02-04T10:15:43.464Z,7.70
2023-02-04T10:18:09.749Z,7.60
2023-02-04T10:20:33.702Z,7.90
2023-02-04T10:22:58.059Z,8.10
2023-02-04T10:25:24.207Z,8.10
2023-02-04T10:27:52.689Z,8.20
2023-02-04T10:30:21.830Z,8.00
2023-02-04T10:32:45.472Z,8.10
2023-02-04T10:35:16.399Z,7.80
2023-02-04T10:37:40.121Z,7.60
2023-02-04T10:40:03.982Z,7.30
2023-02-04T10:42:30.058Z,7.00
2023-02-04T10:44:54.291Z,6.90
2023-02-04T10:47:20.545Z,6.50
2023-02-04T10:49:54.733Z,6.40
2023-02-04T10:52:21.599Z,6.10
2023-02-04T10:54:45.501Z,6.00
2023-02-04T10:57:20.376Z,5.80
2023-02-04T10:59:46.658Z,5.60
2023-02-04T11:02:43.169Z,5.60
2023-02-04T11:05:13.625Z,5.60
2023-02-04T11:07:40.588Z,5.40
2023-02-04T11:10:04.520Z,5.30
2023-02-04T11:12:41.751Z,5.20
2023-02-04T11:15:06.900Z,5.30
2023-02-04T11:17:33.036Z,5.30
2023-02-04T11:19:57.152Z,5.50
2023-02-04T11:22:38.303Z,5.40
2023-02-04T11:25:03.570Z,5.10
2023-02-04T11:27:39.474Z,4.90
2023-02-04T11:30:19.432Z,4.90
2023-02-04T11:32:43.093Z,4.90
2023-02-04T11:35:28.716Z,4.90
2023-02-04T11:37:52.498Z,4.90
2023-02-04T11:40:28.425Z,4.80
2023-02-04T11:42:58.515Z,4.80
2023-02-04T11:45:25.876Z,4.80
2023-02-04T11:47:49.744Z,4.90
2023-02-04T11:50:21.247Z,4.80
2023-02-04T11:52:45.072Z,4.60
2023-02-04T11:55:12.359Z,4.70
2023-02-04T11:57:42.773Z,4.60
2023-02-04T12:00:07.693Z,4.50
2023-02-04T12:02:45.847Z,4.40
2023-02-04T12:05:15.732Z,4.50
2023-02-04T12:07:40.101Z,4.60
2023-02-04T12:10:16.342Z,4.50
2023-02-04T12:12:55.775Z,4.50
2023-02-04T12:15:25.230Z,4.60
2023-02-04T12:18:02.002Z,4.60
2023-02-04T12:20:25.673Z,4.60
2023-02-04T12:22:49.245Z,4.70
2023-02-04T12:25:16.895Z,4.70
2023-02-04T12:27:40.515Z,4.80
2023-02-04T12:30:06.678Z,4.90
2023-02-04T12:32:30.279Z,5.00
2023-02-04T12:34:54.017Z,5.20
2023-02-04T12:37:17.647Z,5.20
2023-02-04T12:39:41.400Z,5.30
2023-02-04T12:42:05.605Z,5.30
2023-02-04T12:44:29.523Z,5.30
2023-02-04T12:46:55.271Z,5.30
2023-02-04T12:49:19.016Z,5.30
2023-02-04T12:51:42.593Z,5.10
2023-02-04T12:54:06.514Z,5.20
2023-02-04T12:56:30.408Z,5.30
2023-02-04T12:58:54.097Z,5.20
2023-02-04T13:01:17.733Z,5.20
2023-02-04T13:03:42.882Z,5.30
2023-02-04T13:06:07.456Z,5.20
2023-02-04T13:08:31.215Z,5.30
2023-02-04T13:10:55.502Z,5.20
2023-02-04T13:13:20.206Z,5.10
2023-02-04T13:15:43.797Z,5.00
2023-02-04T13:18:08.318Z,4.90
2023-02-04T13:20:33.344Z,4.80
2023-02-04T13:22:57.005Z,4.70
2023-02-04T13:25:20.735Z,4.70
2023-02-04T13:27:44.419Z,4.60
2023-02-04T13:30:10.725Z,4.60
2023-02-04T13:32:34.749Z,4.50
2023-02-04T13:34:58.396Z,4.40
2023-02-04T13:37:23.629Z,4.50
2023-02-04T13:39:47.327Z,4.50
2023-02-04T13:42:10.984Z,4.60
2023-02-04T13:44:34.645Z,4.60
2023-02-04T13:46:58.359Z,4.60
2023-02-04T13:49:22.813Z,4.60
2023-02-04T13:51:46.476Z,4.60
2023-02-04T13:54:11.470Z,4.70
2023-02-04T13:56:35.191Z,4.90
2023-02-04T13:58:58.770Z,4.90
2023-02-04T14:01:22.642Z,5.00
2023-02-04T14:03:46.668Z,5.00
2023-02-04T14:06:10.535Z,5.10
2023-02-04T14:08:34.685Z,5.20
2023-02-04T14:10:59.880Z,5.10
2023-02-04T14:13:23.586Z,5.00
2023-02-04T14:15:48.171Z,4.90
2023-02-04T14:18:12.334Z,4.80
2023-02-04T14:20:36.171Z,4.70
2023-02-04T14:22:59.758Z,4.70
2023-02-04T14:25:23.952Z,4.80
2023-02-04T14:27:48.993Z,4.70
2023-02-04T14:30:20.012Z,4.70
2023-02-04T14:32:43.787Z,4.80
2023-02-04T14:35:08.159Z,4.80
2023-02-04T14:37:31.858Z,4.80
2023-02-04T14:39:56.145Z,4.80
2023-02-04T14:42:19.772Z,4.70
2023-02-04T14:44:44.752Z,4.70
2023-02-04T14:47:08.416Z,4.70
2023-02-04T14:49:33.109Z,4.70
2023-02-04T14:51:57.042Z,4.50
2023-02-04T14:54:20.873Z,4.50
2023-02-04T14:56:46.511Z,4.50
2023-02-04T14:59:10.160Z,4.50
2023-02-04T15:01:35.268Z,4.40
2023-02-04T15:03:59.418Z,4.40
2023-02-04T15:06:23.128Z,4.30
2023-02-04T15:08:46.720Z,4.30
2023-02-04T15:11:10.361Z,4.30
2023-02-04T15:13:33.912Z,4.30
2023-02-04T15:15:57.785Z,4.20
2023-02-04T15:18:23.319Z,4.20
2023-02-04T15:20:46.998Z,4.10
2023-02-04T15:23:13.117Z,4.00
2023-02-04T15:25:36.749Z,4.00
2023-02-04T15:28:00.441Z,3.90
2023-02-04T15:30:24.344Z,3.90
2023-02-04T15:32:47.933Z,3.80
2023-02-04T15:35:13.301Z,3.80
2023-02-04T15:37:37.345Z,3.80
2023-02-04T15:40:01.917Z,3.80
2023-02-04T15:42:25.597Z,3.70
2023-02-04T15:44:49.262Z,3.70
2023-02-04T15:47:13.006Z,3.60
2023-02-04T15:49:37.739Z,3.50
2023-02-04T15:52:04.737Z,3.50
2023-02-04T15:54:28.472Z,3.40
2023-02-04T15:56:52.069Z,3.30
2023-02-04T15:59:16.241Z,3.30
2023-02-04T16:01:39.939Z,3.20
2023-02-04T16:04:03.782Z,3.20
2023-02-04T16:06:27.684Z,3.10
2023-02-04T16:08:52.800Z,3.00
2023-02-04T16:11:16.457Z,3.00
2023-02-04T16:13:40.119Z,2.90
2023-02-04T16:16:03.843Z,2.90
2023-02-04T16:18:27.516Z,2.90
2023-02-04T16:20:51.157Z,2.80
2023-02-04T16:23:14.810Z,2.70
2023-02-04T16:25:39.875Z,2.70
2023-02-04T16:28:05.485Z,2.60
2023-02-04T16:30:29.394Z,2.50
2023-02-04T16:32:53.114Z,2.50
2023-02-04T16:35:16.963Z,2.40
2023-02-04T16:37:40.580Z,2.30
2023-02-04T16:40:04.949Z,2.30
2023-02-04T16:42:31.283Z,2.20
2023-02-04T16:44:54.929Z,2.20
2023-02-04T16:47:18.677Z,2.10
2023-02-04T16:49:44.682Z,2.10
2023-02-04T16:52:08.511Z,2.10
2023-02-04T16:54:32.387Z,2.00
2023-02-04T16:56:56.925Z,1.90
2023-02-04T16:59:22.083Z,1.90
2023-02-04T17:01:45.806Z,1.90
2023-02-04T17:04:09.455Z,1.80
2023-02-04T17:06:35.807Z,1.80
2023-02-04T17:08:59.527Z,1.70
2023-02-04T17:11:31.387Z,1.60
2023-02-04T17:13:55.104Z,1.60
2023-02-04T17:16:20.254Z,1.50
2023-02-04T17:18:43.941Z,1.50
2023-02-04T17:21:07.680Z,1.40
2023-02-04T17:23:31.784Z,1.40
2023-02-04T17:25:55.946Z,1.30
2023-02-04T17:28:19.878Z,1.20
2023-02-04T17:30:43.777Z,1.20
2023-02-04T17:33:09.020Z,1.10
2023-02-04T17:35:33.241Z,1.00
2023-02-04T17:37:58.008Z,1.00
2023-02-04T17:40:22.201Z,0.90
2023-02-04T17:42:46.039Z,0.90
2023-02-04T17:45:11.696Z,0.80
2023-02-04T17:47:35.427Z,0.80
2023-02-04T17:50:00.747Z,0.70
2023-02-04T17:52:26.617Z,0.70
2023-02-04T17:54:50.291Z,0.70
2023-02-04T17:57:19.806Z,0.60
2023-02-04T17:59:43.608Z,0.60
2023-02-04T18:02:20.627Z,0.50
2023-02-04T18:04:44.885Z,0.40
2023-02-04T18:07:11.819Z,0.40
2023-02-04T18:09:35.616Z,0.40
2023-02-04T18:11:59.281Z,0.30
2023-02-04T18:14:28.472Z,0.30
2023-02-04T18:16:55.096Z,0.30
2023-02-04T18:19:22.633Z,0.20
2023-02-04T18:21:46.798Z,0.20
2023-02-04T18:24:19.264Z,0.20
2023-02-04T18:26:47.679Z,0.10
2023-02-04T18:29:30.168Z,0.10
2023-02-04T18:31:56.921Z,0.00
2023-02-04T18:34:29.261Z,0.00
2023-02-04T18:36:53.364Z,-0.10
2023-02-04T18:39:22.003Z,-0.10
2023-02-04T18:41:49.980Z,-0.20
2023-02-04T18:44:31.491Z,-0.20
2023-02-04T18:46:55.878Z,-0.20
2023-02-04T18:49:26.743Z,-0.30
2023-02-04T18:51:51.457Z,-0.40
2023-02-04T18:54:45.922Z,-0.50
2023-02-04T18:57:36.839Z,-0.40
2023-02-04T19:00:27.753Z,-0.50
2023-02-04T19:02:54.209Z,-0.40
2023-02-04T19:05:44.594Z,-0.50
2023-02-04T19:08:30.379Z,-0.50
2023-02-04T19:10:57.660Z,-0.50
2023-02-04T19:13:25.824Z,-0.50
2023-02-04T19:16:02.040Z,-0.60
2023-02-04T19:18:29.474Z,-0.60
2023-02-04T19:20:53.399Z,-0.60
2023-02-04T19:23:21.639Z,-0.60
2023-02-04T19:25:47.972Z,-0.50
2023-02-04T19:28:28.640Z,-0.60
2023-02-04T19:30:57.889Z,-0.60
2023-02-04T19:33:27.947Z,-0.60
2023-02-04T19:35:51.971Z,-0.60
2023-02-04T19:38:38.386Z,-0.60
2023-02-04T19:41:02.284Z,-0.60
2023-02-04T19:43:37.803Z,-0.70
2023-02-04T19:46:02.163Z,-0.70
2023-02-04T19:48:34.972Z,-0.70
2023-02-04T19:50:59.028Z,-0.70
2023-02-04T19:53:27.337Z,-0.80
2023-02-04T19:55:53.731Z,-0.80
2023-02-04T19:58:21.733Z,-0.80
2023-02-04T20:00:58.853Z,-0.80
2023-02-04T20:03:47.064Z,-0.80
2023-02-04T20:06:31.811Z,-0.90
2023-02-04T20:09:03.016Z,-0.80
2023-02-04T20:11:54.891Z,-0.90
2023-02-04T20:14:52.300Z,-1.00
2023-02-04T20:17:36.760Z,-1.00
2023-02-04T20:20:27.843Z,-1.00
2023-02-04T20:22:54.651Z,-1.00
2023-02-04T20:25:47.905Z,-1.00
2023-02-04T20:28:37.083Z,-1.10
2023-02-04T20:31:02.492Z,-1.10
2023-02-04T20:33:46.613Z,-1.10
2023-02-04T20:36:36.166Z,-1.20
2023-02-04T20:39:39.431Z,-1.20
2023-02-04T20:42:23.765Z,-1.20
2023-02-04T20:44:48.344Z,-1.20
2023-02-04T20:47:19.610Z,-1.20
2023-02-04T20:49:53.093Z,-1.30
2023-02-04T20:53:09.905Z,-1.20
2023-02-04T20:55:36.043Z,-1.20
2023-02-04T20:58:16.920Z,-1.30
2023-02-04T21:00:41.995Z,-1.30
2023-02-04T21:03:29.937Z,-1.30
2023-02-04T21:05:58.044Z,-1.30
2023-02-04T21:08:38.982Z,-1.40
2023-02-04T21:11:03.487Z,-1.40
2023-02-04T21:13:27.556Z,-1.40
2023-02-04T21:15:52.544Z,-1.40
2023-02-04T21:18:16.413Z,-1.50
2023-02-04T21:20:40.466Z,-1.50
2023-02-04T21:23:06.510Z,-1.60
2023-02-04T21:25:30.916Z,-1.60
2023-02-04T21:27:54.914Z,-1.40
2023-02-04T21:30:18.908Z,-1.70
2023-02-04T21:32:42.533Z,-1.70
2023-02-04T21:35:06.689Z,-1.60
2023-02-04T21:37:30.336Z,-1.70
2023-02-04T21:39:56.245Z,-1.60
2023-02-04T21:42:19.922Z,-1.70
2023-02-04T21:44:43.796Z,-1.60
2023-02-04T21:47:07.747Z,-1.60
2023-02-04T21:49:31.486Z,-1.70
2023-02-04T21:51:55.197Z,-1.90
2023-02-04T21:54:19.428Z,-1.90
2023-02-04T21:56:44.546Z,-1.90
2023-02-04T21:59:08.381Z,-1.90
2023-02-04T22:01:32.113Z,-1.90
2023-02-04T22:03:55.923Z,-2.00
2023-02-04T22:06:19.661Z,-2.00
2023-02-04T22:08:43.404Z,-2.00
2023-02-04T22:11:07.464Z,-2.00
2023-02-04T22:13:32.677Z,-1.90
2023-02-04T22:15:56.350Z,-1.90
2023-02-04T22:18:20.842Z,-1.80
2023-02-04T22:20:44.546Z,-1.90
2023-02-04T22:23:08.404Z,-1.90
2023-02-04T22:25:32.777Z,-1.90
2023-02-04T22:27:56.820Z,-1.70
2023-02-04T22:30:22.457Z,-1.80
2023-02-04T22:32:46.618Z,-1.90
2023-02-04T22:35:11.521Z,-1.80
2023-02-04T22:37:35.584Z,-1.80
2023-02-04T22:39:59.443Z,-1.80
2023-02-04T22:42:23.429Z,-1.60
2023-02-04T22:44:47.326Z,-1.80
2023-02-04T22:47:12.536Z,-1.70
2023-02-04T22:49:36.337Z,-1.60
2023-02-04T22:52:00.610Z,-1.60
2023-02-04T22:54:24.273Z,-1.50
2023-02-04T22:56:48.082Z,-1.60
2023-02-04T22:59:11.779Z,-1.70
2023-02-04T23:01:35.603Z,-1.60
2023-02-04T23:04:00.760Z,-1.60
2023-02-04T23:06:25.071Z,-1.60
2023-02-04T23:08:48.856Z,-1.60
2023-02-04T23:11:13.047Z,-1.40
2023-02-04T23:13:37.099Z,-1.50
2023-02-04T23:16:00.907Z,-1.40
2023-02-04T23:18:24.606Z,-1.50
2023-02-04T23:20:49.925Z,-1.50
2023-02-04T23:23:17.565Z,-1.50
2023-02-04T23:25:41.688Z,-1.50
2023-02-04T23:28:05.670Z,-1.50
2023-02-04T23:30:29.484Z,-1.40
2023-02-04T23:32:53.238Z,-1.40
2023-02-04T23:35:16.997Z,-1.50
2023-02-04T23:37:42.111Z,-1.40
2023-02-04T23:40:07.341Z,-1.50
2023-02-04T23:42:33.034Z,-1.40
2023-02-04T23:44:56.734Z,-1.40
2023-02-04T23:47:20.513Z,-1.40
2023-02-04T23:49:44.443Z,-1.40
2023-02-04T23:52:08.378Z,-1.40
2023-02-04T23:54:33.626Z,-1.40
2023-02-04T23:56:57.258Z,-1.40
2023-02-04T23:59:21.107Z,-1.30
